sensor_id;sensor_type;location;lat;lon;timestamp;P1;durP1;ratioP1;P2;durP2;ratioP2
36253;SDS011;22291;52.250;21.228;2023-03-25T00:01:34;13.85;;;7.85;;
36253;SDS011;22291;52.250;21.228;2023-03-25T00:04:02;10.35;;;7.95;;
36253;SDS011;22291;52.250;21.228;2023-03-25T00:06:30;13.72;;;8.35;;
36253;SDS011;22291;52.250;21.228;2023-03-25T00:08:59;12.18;;;8.00;;
36253;SDS011;22291;52.250;21.228;2023-03-25T00:13:57;11.48;;;6.72;;
36253;SDS011;22291;52.250;21.228;2023-03-25T00:16:27;10.70;;;7.05;;
36253;SDS011;22291;52.250;21.228;2023-03-25T00:18:54;13.22;;;7.47;;
36253;SDS011;22291;52.250;21.228;2023-03-25T00:21:22;10.08;;;7.22;;
36253;SDS011;22291;52.250;21.228;2023-03-25T00:23:49;10.35;;;6.78;;
36253;SDS011;22291;52.250;21.228;2023-03-25T00:26:20;11.53;;;6.42;;
36253;SDS011;22291;52.250;21.228;2023-03-25T00:28:46;9.50;;;5.80;;
36253;SDS011;22291;52.250;21.228;2023-03-25T00:31:15;12.07;;;6.42;;
36253;SDS011;22291;52.250;21.228;2023-03-25T00:33:41;9.53;;;6.00;;
36253;SDS011;22291;52.250;21.228;2023-03-25T00:36:12;10.58;;;6.78;;
36253;SDS011;22291;52.250;21.228;2023-03-25T00:38:39;9.65;;;6.92;;
36253;SDS011;22291;52.250;21.228;2023-03-25T00:41:11;11.12;;;7.12;;
36253;SDS011;22291;52.250;21.228;2023-03-25T00:43:52;11.05;;;6.95;;
36253;SDS011;22291;52.250;21.228;2023-03-25T00:46:22;12.90;;;7.03;;
36253;SDS011;22291;52.250;21.228;2023-03-25T00:48:52;14.25;;;6.83;;
36253;SDS011;22291;52.250;21.228;2023-03-25T00:51:23;10.40;;;6.80;;
36253;SDS011;22291;52.250;21.228;2023-03-25T00:56:23;13.68;;;6.62;;
36253;SDS011;22291;52.250;21.228;2023-03-25T00:58:52;11.43;;;5.97;;
36253;SDS011;22291;52.250;21.228;2023-03-25T01:01:21;12.30;;;7.95;;
36253;SDS011;22291;52.250;21.228;2023-03-25T01:03:53;12.25;;;7.33;;
36253;SDS011;22291;52.250;21.228;2023-03-25T01:06:23;11.73;;;7.03;;
36253;SDS011;22291;52.250;21.228;2023-03-25T01:08:56;13.28;;;7.15;;
36253;SDS011;22291;52.250;21.228;2023-03-25T01:11:26;12.60;;;7.45;;
36253;SDS011;22291;52.250;21.228;2023-03-25T01:13:59;12.10;;;6.80;;
36253;SDS011;22291;52.250;21.228;2023-03-25T01:16:30;13.95;;;6.97;;
36253;SDS011;22291;52.250;21.228;2023-03-25T01:18:59;10.63;;;7.22;;
36253;SDS011;22291;52.250;21.228;2023-03-25T01:21:26;10.93;;;7.35;;
36253;SDS011;22291;52.250;21.228;2023-03-25T01:23:55;14.15;;;7.87;;
36253;SDS011;22291;52.250;21.228;2023-03-25T01:26:23;11.40;;;6.80;;
36253;SDS011;22291;52.250;21.228;2023-03-25T01:28:54;16.60;;;7.28;;
36253;SDS011;22291;52.250;21.228;2023-03-25T01:31:21;12.03;;;7.17;;
36253;SDS011;22291;52.250;21.228;2023-03-25T01:33:48;11.48;;;6.72;;
36253;SDS011;22291;52.250;21.228;2023-03-25T01:36:18;12.77;;;7.23;;
36253;SDS011;22291;52.250;21.228;2023-03-25T01:38:47;11.48;;;7.55;;
36253;SDS011;22291;52.250;21.228;2023-03-25T01:41:18;12.57;;;7.33;;
36253;SDS011;22291;52.250;21.228;2023-03-25T01:46:46;9.55;;;6.65;;
36253;SDS011;22291;52.250;21.228;2023-03-25T01:49:19;11.43;;;7.53;;
36253;SDS011;22291;52.250;21.228;2023-03-25T01:52:06;9.83;;;6.85;;
36253;SDS011;22291;52.250;21.228;2023-03-25T01:54:44;13.38;;;6.60;;
36253;SDS011;22291;52.250;21.228;2023-03-25T01:57:14;12.98;;;7.65;;
36253;SDS011;22291;52.250;21.228;2023-03-25T01:59:43;12.25;;;6.83;;
36253;SDS011;22291;52.250;21.228;2023-03-25T02:02:12;10.38;;;6.40;;
36253;SDS011;22291;52.250;21.228;2023-03-25T02:04:56;11.78;;;7.30;;
36253;SDS011;22291;52.250;21.228;2023-03-25T02:07:28;12.78;;;7.53;;
36253;SDS011;22291;52.250;21.228;2023-03-25T02:10:01;12.18;;;6.95;;
36253;SDS011;22291;52.250;21.228;2023-03-25T02:12:37;13.10;;;7.80;;
36253;SDS011;22291;52.250;21.228;2023-03-25T02:15:07;11.65;;;7.20;;
36253;SDS011;22291;52.250;21.228;2023-03-25T02:20:53;11.83;;;7.25;;
36253;SDS011;22291;52.250;21.228;2023-03-25T02:24:25;12.63;;;7.28;;
36253;SDS011;22291;52.250;21.228;2023-03-25T02:32:28;12.98;;;8.20;;
36253;SDS011;22291;52.250;21.228;2023-03-25T02:40:51;13.13;;;8.33;;
36253;SDS011;22291;52.250;21.228;2023-03-25T02:46:19;12.53;;;8.13;;
36253;SDS011;22291;52.250;21.228;2023-03-25T02:48:59;15.65;;;8.18;;
36253;SDS011;22291;52.250;21.228;2023-03-25T02:51:37;15.40;;;9.00;;
36253;SDS011;22291;52.250;21.228;2023-03-25T02:54:09;18.27;;;10.08;;
36253;SDS011;22291;52.250;21.228;2023-03-25T02:56:41;14.70;;;9.20;;
36253;SDS011;22291;52.250;21.228;2023-03-25T02:59:12;15.58;;;9.28;;
36253;SDS011;22291;52.250;21.228;2023-03-25T03:01:44;17.55;;;8.88;;
36253;SDS011;22291;52.250;21.228;2023-03-25T03:04:14;16.45;;;8.93;;
36253;SDS011;22291;52.250;21.228;2023-03-25T03:06:44;17.35;;;9.30;;
36253;SDS011;22291;52.250;21.228;2023-03-25T03:09:16;14.87;;;9.43;;
36253;SDS011;22291;52.250;21.228;2023-03-25T03:14:56;16.15;;;8.93;;
36253;SDS011;22291;52.250;21.228;2023-03-25T03:24:09;19.92;;;10.60;;
36253;SDS011;22291;52.250;21.228;2023-03-25T03:26:35;17.50;;;9.38;;
36253;SDS011;22291;52.250;21.228;2023-03-25T03:29:24;15.75;;;9.80;;
36253;SDS011;22291;52.250;21.228;2023-03-25T03:32:03;18.80;;;10.23;;
36253;SDS011;22291;52.250;21.228;2023-03-25T03:34:57;18.20;;;10.70;;
36253;SDS011;22291;52.250;21.228;2023-03-25T03:37:28;16.35;;;10.32;;
36253;SDS011;22291;52.250;21.228;2023-03-25T03:40:07;14.78;;;8.93;;
36253;SDS011;22291;52.250;21.228;2023-03-25T03:42:41;18.70;;;10.80;;
36253;SDS011;22291;52.250;21.228;2023-03-25T03:45:20;16.87;;;10.30;;
36253;SDS011;22291;52.250;21.228;2023-03-25T03:47:53;19.30;;;10.08;;
36253;SDS011;22291;52.250;21.228;2023-03-25T03:50:26;17.32;;;10.65;;
36253;SDS011;22291;52.250;21.228;2023-03-25T03:53:02;20.08;;;11.12;;
36253;SDS011;22291;52.250;21.228;2023-03-25T03:55:45;16.73;;;9.83;;
36253;SDS011;22291;52.250;21.228;2023-03-25T03:58:22;20.72;;;10.45;;
36253;SDS011;22291;52.250;21.228;2023-03-25T04:06:20;15.85;;;10.10;;
36253;SDS011;22291;52.250;21.228;2023-03-25T04:09:15;18.25;;;10.93;;
36253;SDS011;22291;52.250;21.228;2023-03-25T04:12:02;20.57;;;10.58;;
36253;SDS011;22291;52.250;21.228;2023-03-25T04:14:31;19.60;;;10.05;;
36253;SDS011;22291;52.250;21.228;2023-03-25T04:16:59;18.52;;;10.55;;
36253;SDS011;22291;52.250;21.228;2023-03-25T04:19:26;17.70;;;10.80;;
36253;SDS011;22291;52.250;21.228;2023-03-25T04:21:54;19.87;;;11.10;;
36253;SDS011;22291;52.250;21.228;2023-03-25T04:24:22;18.95;;;11.12;;
36253;SDS011;22291;52.250;21.228;2023-03-25T04:26:51;22.27;;;12.45;;
36253;SDS011;22291;52.250;21.228;2023-03-25T04:29:19;18.92;;;11.57;;
36253;SDS011;22291;52.250;21.228;2023-03-25T04:31:47;19.77;;;11.68;;
36253;SDS011;22291;52.250;21.228;2023-03-25T04:34:14;21.40;;;10.93;;
36253;SDS011;22291;52.250;21.228;2023-03-25T04:36:44;21.60;;;11.90;;
36253;SDS011;22291;52.250;21.228;2023-03-25T04:39:14;21.77;;;12.07;;
36253;SDS011;22291;52.250;21.228;2023-03-25T04:41:48;20.43;;;11.38;;
36253;SDS011;22291;52.250;21.228;2023-03-25T04:44:21;21.15;;;11.88;;
36253;SDS011;22291;52.250;21.228;2023-03-25T04:46:51;17.65;;;10.68;;
36253;SDS011;22291;52.250;21.228;2023-03-25T04:49:19;19.80;;;10.75;;
36253;SDS011;22291;52.250;21.228;2023-03-25T04:51:48;20.20;;;11.75;;
36253;SDS011;22291;52.250;21.228;2023-03-25T04:54:18;17.35;;;10.95;;
36253;SDS011;22291;52.250;21.228;2023-03-25T04:56:46;19.80;;;11.63;;
36253;SDS011;22291;52.250;21.228;2023-03-25T04:59:15;20.37;;;10.85;;
36253;SDS011;22291;52.250;21.228;2023-03-25T05:01:44;18.95;;;11.73;;
36253;SDS011;22291;52.250;21.228;2023-03-25T05:04:13;13.73;;;7.63;;
36253;SDS011;22291;52.250;21.228;2023-03-25T05:06:43;19.92;;;11.38;;
36253;SDS011;22291;52.250;21.228;2023-03-25T05:09:15;22.77;;;11.83;;
36253;SDS011;22291;52.250;21.228;2023-03-25T05:11:47;17.70;;;11.08;;
36253;SDS011;22291;52.250;21.228;2023-03-25T05:14:18;20.80;;;11.73;;
36253;SDS011;22291;52.250;21.228;2023-03-25T05:16:47;20.57;;;11.48;;
36253;SDS011;22291;52.250;21.228;2023-03-25T05:19:15;19.57;;;11.28;;
36253;SDS011;22291;52.250;21.228;2023-03-25T05:21:43;17.65;;;10.80;;
36253;SDS011;22291;52.250;21.228;2023-03-25T05:24:10;17.92;;;10.70;;
36253;SDS011;22291;52.250;21.228;2023-03-25T05:26:40;23.02;;;11.63;;
36253;SDS011;22291;52.250;21.228;2023-03-25T05:29:10;19.60;;;11.78;;
36253;SDS011;22291;52.250;21.228;2023-03-25T05:31:40;19.70;;;11.10;;
36253;SDS011;22291;52.250;21.228;2023-03-25T05:34:14;19.75;;;11.22;;
36253;SDS011;22291;52.250;21.228;2023-03-25T05:36:42;17.40;;;10.88;;
36253;SDS011;22291;52.250;21.228;2023-03-25T05:39:10;21.03;;;12.13;;
36253;SDS011;22291;52.250;21.228;2023-03-25T05:41:37;20.85;;;12.73;;
36253;SDS011;22291;52.250;21.228;2023-03-25T05:44:06;21.85;;;13.62;;
36253;SDS011;22291;52.250;21.228;2023-03-25T05:46:37;23.10;;;12.70;;
36253;SDS011;22291;52.250;21.228;2023-03-25T05:49:03;21.57;;;13.05;;
36253;SDS011;22291;52.250;21.228;2023-03-25T05:51:32;21.20;;;12.60;;
36253;SDS011;22291;52.250;21.228;2023-03-25T05:54:02;22.82;;;12.65;;
36253;SDS011;22291;52.250;21.228;2023-03-25T05:56:32;20.72;;;12.40;;
36253;SDS011;22291;52.250;21.228;2023-03-25T05:59:01;18.55;;;11.88;;
36253;SDS011;22291;52.250;21.228;2023-03-25T06:01:30;23.22;;;12.80;;
36253;SDS011;22291;52.250;21.228;2023-03-25T06:04:03;25.12;;;13.45;;
36253;SDS011;22291;52.250;21.228;2023-03-25T06:06:33;23.65;;;13.58;;
36253;SDS011;22291;52.250;21.228;2023-03-25T06:09:01;22.52;;;13.58;;
36253;SDS011;22291;52.250;21.228;2023-03-25T06:11:29;21.45;;;13.10;;
36253;SDS011;22291;52.250;21.228;2023-03-25T06:13:59;26.50;;;13.58;;
36253;SDS011;22291;52.250;21.228;2023-03-25T06:16:26;22.45;;;13.00;;
36253;SDS011;22291;52.250;21.228;2023-03-25T06:18:55;22.30;;;12.98;;
36253;SDS011;22291;52.250;21.228;2023-03-25T06:21:27;23.57;;;13.95;;
36253;SDS011;22291;52.250;21.228;2023-03-25T06:23:58;26.05;;;13.35;;
36253;SDS011;22291;52.250;21.228;2023-03-25T06:26:27;23.35;;;13.20;;
36253;SDS011;22291;52.250;21.228;2023-03-25T06:28:55;20.05;;;12.58;;
36253;SDS011;22291;52.250;21.228;2023-03-25T06:31:24;26.40;;;13.83;;
36253;SDS011;22291;52.250;21.228;2023-03-25T06:33:52;21.55;;;13.25;;
36253;SDS011;22291;52.250;21.228;2023-03-25T06:36:21;23.83;;;12.93;;
36253;SDS011;22291;52.250;21.228;2023-03-25T06:38:50;36.63;;;17.30;;
36253;SDS011;22291;52.250;21.228;2023-03-25T06:41:19;22.93;;;14.00;;
36253;SDS011;22291;52.250;21.228;2023-03-25T06:43:50;25.48;;;14.07;;
36253;SDS011;22291;52.250;21.228;2023-03-25T06:46:18;24.47;;;13.93;;
36253;SDS011;22291;52.250;21.228;2023-03-25T06:48:44;23.20;;;14.10;;
36253;SDS011;22291;52.250;21.228;2023-03-25T06:51:10;25.40;;;15.70;;
36253;SDS011;22291;52.250;21.228;2023-03-25T06:53:38;27.67;;;16.45;;
36253;SDS011;22291;52.250;21.228;2023-03-25T06:56:06;25.30;;;15.05;;
36253;SDS011;22291;52.250;21.228;2023-03-25T06:58:34;26.45;;;15.40;;
36253;SDS011;22291;52.250;21.228;2023-03-25T07:01:00;21.97;;;13.93;;
36253;SDS011;22291;52.250;21.228;2023-03-25T07:03:34;24.80;;;14.95;;
36253;SDS011;22291;52.250;21.228;2023-03-25T07:06:04;24.05;;;15.10;;
36253;SDS011;22291;52.250;21.228;2023-03-25T07:08:32;25.02;;;15.53;;
36253;SDS011;22291;52.250;21.228;2023-03-25T07:11:00;26.05;;;15.90;;
36253;SDS011;22291;52.250;21.228;2023-03-25T07:13:32;23.70;;;15.75;;
36253;SDS011;22291;52.250;21.228;2023-03-25T07:15:59;26.75;;;16.95;;
36253;SDS011;22291;52.250;21.228;2023-03-25T07:18:28;27.22;;;16.23;;
36253;SDS011;22291;52.250;21.228;2023-03-25T07:20:55;27.05;;;17.00;;
36253;SDS011;22291;52.250;21.228;2023-03-25T07:23:21;23.05;;;16.20;;
36253;SDS011;22291;52.250;21.228;2023-03-25T07:25:48;30.00;;;16.00;;
36253;SDS011;22291;52.250;21.228;2023-03-25T07:28:16;25.55;;;16.40;;
36253;SDS011;22291;52.250;21.228;2023-03-25T07:30:43;24.52;;;15.95;;
36253;SDS011;22291;52.250;21.228;2023-03-25T07:33:10;26.90;;;15.45;;
36253;SDS011;22291;52.250;21.228;2023-03-25T07:35:37;27.27;;;15.83;;
36253;SDS011;22291;52.250;21.228;2023-03-25T07:38:03;19.52;;;13.70;;
36253;SDS011;22291;52.250;21.228;2023-03-25T07:40:30;28.92;;;15.83;;
36253;SDS011;22291;52.250;21.228;2023-03-25T07:42:58;21.40;;;14.25;;
36253;SDS011;22291;52.250;21.228;2023-03-25T07:45:24;26.82;;;14.55;;
36253;SDS011;22291;52.250;21.228;2023-03-25T07:47:51;19.30;;;13.58;;
36253;SDS011;22291;52.250;21.228;2023-03-25T07:50:25;22.48;;;13.38;;
36253;SDS011;22291;52.250;21.228;2023-03-25T07:55:26;23.65;;;13.98;;
36253;SDS011;22291;52.250;21.228;2023-03-25T07:57:52;21.75;;;14.50;;
36253;SDS011;22291;52.250;21.228;2023-03-25T08:00:21;20.43;;;14.38;;
36253;SDS011;22291;52.250;21.228;2023-03-25T08:02:47;19.50;;;13.88;;
36253;SDS011;22291;52.250;21.228;2023-03-25T08:05:18;25.68;;;15.03;;
36253;SDS011;22291;52.250;21.228;2023-03-25T08:07:50;25.80;;;14.25;;
36253;SDS011;22291;52.250;21.228;2023-03-25T08:10:17;18.75;;;12.73;;
36253;SDS011;22291;52.250;21.228;2023-03-25T08:12:45;21.65;;;13.55;;
36253;SDS011;22291;52.250;21.228;2023-03-25T08:15:18;20.35;;;11.63;;
36253;SDS011;22291;52.250;21.228;2023-03-25T08:20:13;23.12;;;12.80;;
36253;SDS011;22291;52.250;21.228;2023-03-25T08:22:42;17.50;;;11.85;;
36253;SDS011;22291;52.250;21.228;2023-03-25T08:25:14;18.42;;;11.85;;
36253;SDS011;22291;52.250;21.228;2023-03-25T08:30:10;17.60;;;10.35;;
36253;SDS011;22291;52.250;21.228;2023-03-25T08:32:38;18.02;;;11.12;;
36253;SDS011;22291;52.250;21.228;2023-03-25T08:35:08;17.95;;;10.15;;
36253;SDS011;22291;52.250;21.228;2023-03-25T08:37:37;21.60;;;12.05;;
36253;SDS011;22291;52.250;21.228;2023-03-25T08:40:06;18.30;;;13.00;;
36253;SDS011;22291;52.250;21.228;2023-03-25T08:42:34;22.40;;;13.22;;
36253;SDS011;22291;52.250;21.228;2023-03-25T08:45:05;23.38;;;14.07;;
36253;SDS011;22291;52.250;21.228;2023-03-25T08:47:33;23.15;;;14.28;;
36253;SDS011;22291;52.250;21.228;2023-03-25T08:49:59;23.02;;;12.15;;
36253;SDS011;22291;52.250;21.228;2023-03-25T08:52:31;22.62;;;12.15;;
36253;SDS011;22291;52.250;21.228;2023-03-25T08:54:58;20.25;;;12.65;;
36253;SDS011;22291;52.250;21.228;2023-03-25T08:57:30;19.10;;;11.60;;
36253;SDS011;22291;52.250;21.228;2023-03-25T08:59:59;13.95;;;10.10;;
36253;SDS011;22291;52.250;21.228;2023-03-25T09:02:27;13.68;;;9.80;;
36253;SDS011;22291;52.250;21.228;2023-03-25T09:04:59;12.90;;;8.80;;
36253;SDS011;22291;52.250;21.228;2023-03-25T09:07:34;13.60;;;8.98;;
36253;SDS011;22291;52.250;21.228;2023-03-25T09:10:10;16.55;;;9.25;;
36253;SDS011;22291;52.250;21.228;2023-03-25T09:12:42;12.07;;;8.43;;
36253;SDS011;22291;52.250;21.228;2023-03-25T09:15:11;11.18;;;8.90;;
36253;SDS011;22291;52.250;21.228;2023-03-25T09:17:39;13.10;;;7.55;;
36253;SDS011;22291;52.250;21.228;2023-03-25T09:20:08;11.50;;;8.43;;
36253;SDS011;22291;52.250;21.228;2023-03-25T09:22:36;12.25;;;8.38;;
36253;SDS011;22291;52.250;21.228;2023-03-25T09:25:07;9.28;;;7.45;;
36253;SDS011;22291;52.250;21.228;2023-03-25T09:27:35;10.55;;;7.12;;
36253;SDS011;22291;52.250;21.228;2023-03-25T09:30:05;10.80;;;6.70;;
36253;SDS011;22291;52.250;21.228;2023-03-25T09:32:33;10.25;;;6.47;;
36253;SDS011;22291;52.250;21.228;2023-03-25T09:35:00;9.63;;;6.33;;
36253;SDS011;22291;52.250;21.228;2023-03-25T09:37:26;12.18;;;6.70;;
36253;SDS011;22291;52.250;21.228;2023-03-25T09:39:56;10.45;;;6.28;;
36253;SDS011;22291;52.250;21.228;2023-03-25T09:51:04;10.18;;;5.25;;
36253;SDS011;22291;52.250;21.228;2023-03-25T09:53:48;8.00;;;5.20;;
36253;SDS011;22291;52.250;21.228;2023-03-25T09:56:37;8.45;;;4.70;;
36253;SDS011;22291;52.250;21.228;2023-03-25T09:59:12;7.72;;;4.83;;
36253;SDS011;22291;52.250;21.228;2023-03-25T10:01:54;7.17;;;4.42;;
36253;SDS011;22291;52.250;21.228;2023-03-25T10:07:49;7.58;;;4.28;;
36253;SDS011;22291;52.250;21.228;2023-03-25T10:24:11;8.63;;;4.55;;
36253;SDS011;22291;52.250;21.228;2023-03-25T10:26:52;8.78;;;5.65;;
36253;SDS011;22291;52.250;21.228;2023-03-25T10:29:32;9.05;;;5.97;;
36253;SDS011;22291;52.250;21.228;2023-03-25T10:32:15;11.05;;;5.40;;
36253;SDS011;22291;52.250;21.228;2023-03-25T10:34:46;7.85;;;5.37;;
36253;SDS011;22291;52.250;21.228;2023-03-25T10:37:16;11.25;;;5.97;;
36253;SDS011;22291;52.250;21.228;2023-03-25T10:39:52;5.85;;;4.40;;
36253;SDS011;22291;52.250;21.228;2023-03-25T10:42:32;6.62;;;3.90;;
36253;SDS011;22291;52.250;21.228;2023-03-25T10:45:11;7.83;;;4.75;;
36253;SDS011;22291;52.250;21.228;2023-03-25T10:47:42;7.58;;;4.20;;
36253;SDS011;22291;52.250;21.228;2023-03-25T10:50:14;7.17;;;4.30;;
36253;SDS011;22291;52.250;21.228;2023-03-25T10:52:42;7.65;;;4.35;;
36253;SDS011;22291;52.250;21.228;2023-03-25T10:55:17;9.30;;;4.35;;
36253;SDS011;22291;52.250;21.228;2023-03-25T10:57:54;8.85;;;4.58;;
36253;SDS011;22291;52.250;21.228;2023-03-25T11:00:22;8.55;;;4.85;;
36253;SDS011;22291;52.250;21.228;2023-03-25T11:02:50;10.35;;;4.95;;
36253;SDS011;22291;52.250;21.228;2023-03-25T11:05:20;11.60;;;4.67;;
36253;SDS011;22291;52.250;21.228;2023-03-25T11:07:50;8.18;;;4.75;;
36253;SDS011;22291;52.250;21.228;2023-03-25T11:10:23;10.18;;;5.05;;
36253;SDS011;22291;52.250;21.228;2023-03-25T11:13:11;8.98;;;5.30;;
36253;SDS011;22291;52.250;21.228;2023-03-25T11:15:40;7.70;;;4.83;;
36253;SDS011;22291;52.250;21.228;2023-03-25T11:20:54;9.88;;;5.00;;
36253;SDS011;22291;52.250;21.228;2023-03-25T11:23:31;9.20;;;5.70;;
36253;SDS011;22291;52.250;21.228;2023-03-25T11:26:05;9.80;;;4.80;;
36253;SDS011;22291;52.250;21.228;2023-03-25T11:28:42;8.08;;;5.05;;
36253;SDS011;22291;52.250;21.228;2023-03-25T11:31:16;7.30;;;5.15;;
36253;SDS011;22291;52.250;21.228;2023-03-25T11:39:34;8.80;;;5.05;;
36253;SDS011;22291;52.250;21.228;2023-03-25T11:42:19;6.17;;;4.53;;
36253;SDS011;22291;52.250;21.228;2023-03-25T11:44:54;10.20;;;4.78;;
36253;SDS011;22291;52.250;21.228;2023-03-25T11:47:29;6.80;;;4.03;;
36253;SDS011;22291;52.250;21.228;2023-03-25T11:50:02;8.30;;;4.90;;
36253;SDS011;22291;52.250;21.228;2023-03-25T11:52:42;7.58;;;5.00;;
36253;SDS011;22291;52.250;21.228;2023-03-25T11:55:22;7.17;;;3.45;;
36253;SDS011;22291;52.250;21.228;2023-03-25T11:57:50;6.45;;;3.85;;
36253;SDS011;22291;52.250;21.228;2023-03-25T12:00:26;7.20;;;3.67;;
36253;SDS011;22291;52.250;21.228;2023-03-25T12:03:05;5.20;;;3.37;;
36253;SDS011;22291;52.250;21.228;2023-03-25T12:05:43;8.25;;;3.70;;
36253;SDS011;22291;52.250;21.228;2023-03-25T12:08:43;5.78;;;2.77;;
36253;SDS011;22291;52.250;21.228;2023-03-25T12:22:37;6.85;;;2.98;;
36253;SDS011;22291;52.250;21.228;2023-03-25T12:28:18;5.90;;;2.67;;
36253;SDS011;22291;52.250;21.228;2023-03-25T12:31:19;6.70;;;2.55;;
36253;SDS011;22291;52.250;21.228;2023-03-25T12:36:44;3.90;;;2.50;;
36253;SDS011;22291;52.250;21.228;2023-03-25T12:42:24;7.87;;;3.02;;
36253;SDS011;22291;52.250;21.228;2023-03-25T12:47:54;6.10;;;2.92;;
36253;SDS011;22291;52.250;21.228;2023-03-25T12:56:28;7.25;;;3.60;;
36253;SDS011;22291;52.250;21.228;2023-03-25T13:02:42;5.12;;;2.60;;
36253;SDS011;22291;52.250;21.228;2023-03-25T13:07:56;6.37;;;3.42;;
36253;SDS011;22291;52.250;21.228;2023-03-25T13:10:37;6.78;;;3.42;;
36253;SDS011;22291;52.250;21.228;2023-03-25T13:13:15;4.65;;;3.33;;
36253;SDS011;22291;52.250;21.228;2023-03-25T13:16:01;8.03;;;3.55;;
36253;SDS011;22291;52.250;21.228;2023-03-25T13:18:41;5.70;;;3.20;;
36253;SDS011;22291;52.250;21.228;2023-03-25T13:21:29;5.12;;;3.50;;
36253;SDS011;22291;52.250;21.228;2023-03-25T13:24:08;11.10;;;3.67;;
36253;SDS011;22291;52.250;21.228;2023-03-25T13:26:44;9.65;;;3.90;;
36253;SDS011;22291;52.250;21.228;2023-03-25T13:31:55;5.25;;;3.10;;
36253;SDS011;22291;52.250;21.228;2023-03-25T13:34:30;8.25;;;3.35;;
36253;SDS011;22291;52.250;21.228;2023-03-25T13:37:25;6.67;;;2.85;;
36253;SDS011;22291;52.250;21.228;2023-03-25T13:40:19;22.62;;;15.05;;
36253;SDS011;22291;52.250;21.228;2023-03-25T13:42:58;10.35;;;4.30;;
36253;SDS011;22291;52.250;21.228;2023-03-25T13:48:33;6.50;;;2.27;;
36253;SDS011;22291;52.250;21.228;2023-03-25T13:51:22;4.50;;;2.20;;
36253;SDS011;22291;52.250;21.228;2023-03-25T13:54:00;7.10;;;2.12;;
36253;SDS011;22291;52.250;21.228;2023-03-25T14:12:01;5.03;;;3.12;;
36253;SDS011;22291;52.250;21.228;2023-03-25T14:14:48;4.65;;;3.12;;
36253;SDS011;22291;52.250;21.228;2023-03-25T14:17:14;5.22;;;3.12;;
36253;SDS011;22291;52.250;21.228;2023-03-25T14:19:46;8.25;;;3.72;;
36253;SDS011;22291;52.250;21.228;2023-03-25T14:22:21;8.50;;;4.53;;
36253;SDS011;22291;52.250;21.228;2023-03-25T14:24:51;9.60;;;4.90;;
36253;SDS011;22291;52.250;21.228;2023-03-25T14:27:35;6.53;;;3.92;;
36253;SDS011;22291;52.250;21.228;2023-03-25T14:30:04;8.03;;;4.53;;
36253;SDS011;22291;52.250;21.228;2023-03-25T14:32:38;9.23;;;3.90;;
36253;SDS011;22291;52.250;21.228;2023-03-25T14:35:55;8.75;;;4.92;;
36253;SDS011;22291;52.250;21.228;2023-03-25T14:40:50;10.13;;;5.40;;
36253;SDS011;22291;52.250;21.228;2023-03-25T14:43:37;9.08;;;4.90;;
36253;SDS011;22291;52.250;21.228;2023-03-25T14:59:54;11.63;;;5.85;;
36253;SDS011;22291;52.250;21.228;2023-03-25T15:02:31;10.08;;;5.95;;
36253;SDS011;22291;52.250;21.228;2023-03-25T15:05:03;6.97;;;5.60;;
36253;SDS011;22291;52.250;21.228;2023-03-25T15:07:46;11.50;;;6.17;;
36253;SDS011;22291;52.250;21.228;2023-03-25T15:10:26;9.05;;;5.50;;
36253;SDS011;22291;52.250;21.228;2023-03-25T15:19:02;10.88;;;5.55;;
36253;SDS011;22291;52.250;21.228;2023-03-25T15:21:34;7.92;;;5.03;;
36253;SDS011;22291;52.250;21.228;2023-03-25T15:24:34;9.53;;;4.75;;
36253;SDS011;22291;52.250;21.228;2023-03-25T15:27:23;11.25;;;4.90;;
36253;SDS011;22291;52.250;21.228;2023-03-25T15:47:52;2.35;;;1.00;;
36253;SDS011;22291;52.250;21.228;2023-03-25T15:53:49;1.40;;;1.10;;
36253;SDS011;22291;52.250;21.228;2023-03-25T15:56:50;1.00;;;0.90;;
36253;SDS011;22291;52.250;21.228;2023-03-25T15:59:42;1.52;;;1.00;;
36253;SDS011;22291;52.250;21.228;2023-03-25T16:02:18;3.52;;;0.75;;
36253;SDS011;22291;52.250;21.228;2023-03-25T16:05:01;1.92;;;1.17;;
36253;SDS011;22291;52.250;21.228;2023-03-25T16:07:37;1.77;;;1.10;;
36253;SDS011;22291;52.250;21.228;2023-03-25T16:10:16;1.37;;;1.27;;
36253;SDS011;22291;52.250;21.228;2023-03-25T16:13:04;1.12;;;0.93;;
36253;SDS011;22291;52.250;21.228;2023-03-25T16:15:41;1.12;;;1.02;;
36253;SDS011;22291;52.250;21.228;2023-03-25T16:18:10;8.95;;;5.83;;
36253;SDS011;22291;52.250;21.228;2023-03-25T16:20:41;3.92;;;2.50;;
36253;SDS011;22291;52.250;21.228;2023-03-25T16:23:16;2.65;;;1.27;;
36253;SDS011;22291;52.250;21.228;2023-03-25T16:25:46;2.35;;;1.37;;
36253;SDS011;22291;52.250;21.228;2023-03-25T16:30:47;1.42;;;1.32;;
36253;SDS011;22291;52.250;21.228;2023-03-25T16:33:18;3.05;;;1.65;;
36253;SDS011;22291;52.250;21.228;2023-03-25T16:38:26;4.62;;;2.20;;
36253;SDS011;22291;52.250;21.228;2023-03-25T16:41:12;3.17;;;2.33;;
36253;SDS011;22291;52.250;21.228;2023-03-25T16:43:39;5.20;;;2.70;;
36253;SDS011;22291;52.250;21.228;2023-03-25T16:46:08;5.62;;;3.80;;
36253;SDS011;22291;52.250;21.228;2023-03-25T16:53:59;4.35;;;2.60;;
36253;SDS011;22291;52.250;21.228;2023-03-25T16:56:37;4.15;;;2.50;;
36253;SDS011;22291;52.250;21.228;2023-03-25T16:59:06;8.58;;;3.00;;
36253;SDS011;22291;52.250;21.228;2023-03-25T17:01:52;9.40;;;4.47;;
36253;SDS011;22291;52.250;21.228;2023-03-25T17:04:24;4.70;;;2.60;;
36253;SDS011;22291;52.250;21.228;2023-03-25T17:09:40;3.40;;;2.40;;
36253;SDS011;22291;52.250;21.228;2023-03-25T17:12:10;4.90;;;2.80;;
36253;SDS011;22291;52.250;21.228;2023-03-25T17:14:45;3.67;;;2.90;;
36253;SDS011;22291;52.250;21.228;2023-03-25T17:20:15;4.12;;;3.12;;
36253;SDS011;22291;52.250;21.228;2023-03-25T17:23:00;4.45;;;3.17;;
36253;SDS011;22291;52.250;21.228;2023-03-25T17:25:47;4.83;;;3.25;;
36253;SDS011;22291;52.250;21.228;2023-03-25T17:31:18;4.92;;;3.22;;
36253;SDS011;22291;52.250;21.228;2023-03-25T17:34:09;4.22;;;3.02;;
36253;SDS011;22291;52.250;21.228;2023-03-25T17:36:49;5.83;;;3.62;;
36253;SDS011;22291;52.250;21.228;2023-03-25T17:41:54;10.20;;;4.97;;
36253;SDS011;22291;52.250;21.228;2023-03-25T17:44:34;6.47;;;3.92;;
36253;SDS011;22291;52.250;21.228;2023-03-25T17:47:04;9.35;;;4.67;;
36253;SDS011;22291;52.250;21.228;2023-03-25T17:49:33;6.55;;;4.20;;
36253;SDS011;22291;52.250;21.228;2023-03-25T17:52:01;6.67;;;4.47;;
36253;SDS011;22291;52.250;21.228;2023-03-25T17:54:28;11.18;;;4.78;;
36253;SDS011;22291;52.250;21.228;2023-03-25T17:56:57;9.38;;;4.33;;
36253;SDS011;22291;52.250;21.228;2023-03-25T17:59:24;9.63;;;5.42;;
36253;SDS011;22291;52.250;21.228;2023-03-25T18:01:52;8.38;;;5.70;;
36253;SDS011;22291;52.250;21.228;2023-03-25T18:04:19;8.55;;;5.58;;
36253;SDS011;22291;52.250;21.228;2023-03-25T18:06:47;8.55;;;5.58;;
36253;SDS011;22291;52.250;21.228;2023-03-25T18:09:20;11.25;;;5.60;;
36253;SDS011;22291;52.250;21.228;2023-03-25T18:11:50;9.20;;;5.22;;
36253;SDS011;22291;52.250;21.228;2023-03-25T18:14:21;9.63;;;6.35;;
36253;SDS011;22291;52.250;21.228;2023-03-25T18:16:49;12.00;;;7.60;;
36253;SDS011;22291;52.250;21.228;2023-03-25T18:19:25;11.95;;;6.87;;